createdAt,value
2023-05-08T00:06:35.501Z,44.50
2023-05-08T00:16:42.389Z,44.40
2023-05-08T00:26:51.106Z,45.00
2023-05-08T00:37:00.235Z,45.10
2023-05-08T00:47:10.204Z,45.20
2023-05-08T00:57:18.756Z,44.90
2023-05-08T01:07:27.303Z,44.90
2023-05-08T01:17:45.199Z,44.80
2023-05-08T01:28:24.750Z,44.80
2023-05-08T01:38:36.157Z,44.80
2023-05-08T01:48:49.927Z,44.70
2023-05-08T01:59:00.738Z,44.30
2023-05-08T02:09:10.374Z,43.90
2023-05-08T02:19:26.721Z,44.30
2023-05-08T02:29:34.590Z,44.40
2023-05-08T02:39:44.622Z,44.60
2023-05-08T02:50:01.281Z,45.00
2023-05-08T03:00:17.494Z,44.90
2023-05-08T03:10:29.330Z,44.80
2023-05-08T03:20:42.830Z,44.50
2023-05-08T03:30:50.904Z,44.50
2023-05-08T03:40:59.644Z,44.20
2023-05-08T03:51:08.381Z,44.30
2023-05-08T04:01:28.811Z,44.80
2023-05-08T04:11:41.247Z,45.30
2023-05-08T04:21:53.579Z,45.00
2023-05-08T04:32:03.748Z,45.10
2023-05-08T04:42:16.046Z,45.00
2023-05-08T04:52:23.522Z,46.00
2023-05-08T05:02:32.481Z,45.40
2023-05-08T05:12:41.289Z,45.50
2023-05-08T05:22:50.117Z,45.60
2023-05-08T06:09:02.294Z,45.30
2023-05-08T06:19:09.334Z,45.30
2023-05-08T06:29:18.094Z,45.30
2023-05-08T06:39:46.794Z,45.20
2023-05-08T06:50:01.195Z,45.30
2023-05-08T07:00:09.325Z,44.50
2023-05-08T07:10:23.929Z,43.90
2023-05-08T07:20:36.409Z,43.40
2023-05-08T07:30:45.864Z,43.20
2023-05-08T07:40:55.001Z,43.10
2023-05-08T07:51:04.089Z,43.10
2023-05-08T08:02:33.274Z,43.10
2023-05-08T08:13:09.990Z,43.20
2023-05-08T08:23:27.325Z,43.60
2023-05-08T08:46:24.351Z,43.20
2023-05-08T08:57:11.907Z,43.10
2023-05-08T09:19:09.372Z,42.80
2023-05-08T09:29:27.343Z,43.20
2023-05-08T09:51:24.867Z,42.80
2023-05-08T10:01:42.300Z,43.10
2023-05-08T10:12:15.076Z,42.60
2023-05-08T10:22:35.795Z,42.70
2023-05-08T10:32:57.092Z,42.30
2023-05-08T10:44:03.989Z,42.00
2023-05-08T11:06:22.424Z,42.10
2023-05-08T11:41:21.568Z,41.70
2023-05-08T12:38:16.208Z,41.20
2023-05-08T12:49:26.832Z,41.40
2023-05-08T13:00:43.280Z,41.30
2023-05-08T13:11:38.134Z,41.30
2023-05-08T13:22:37.240Z,41.40
2023-05-08T13:45:23.047Z,41.60
2023-05-08T14:32:32.680Z,42.10
2023-05-08T14:42:49.331Z,43.00
2023-05-08T14:52:58.186Z,43.10
2023-05-08T15:03:05.274Z,43.60
2023-05-08T15:13:13.952Z,43.70
2023-05-08T15:23:21.279Z,43.80
2023-05-08T15:33:29.822Z,43.70
2023-05-08T15:43:37.180Z,43.90
2023-05-08T15:53:49.505Z,44.10
2023-05-08T16:03:59.278Z,43.90
2023-05-08T16:14:10.715Z,44.00
2023-05-08T16:24:17.668Z,43.90
2023-05-08T16:34:26.929Z,44.00
2023-05-08T16:45:05.514Z,44.80
2023-05-08T16:55:45.787Z,44.90
2023-05-08T17:17:30.820Z,45.30
2023-05-08T17:28:40.143Z,45.80
2023-05-08T17:38:49.282Z,45.80
2023-05-08T17:49:04.258Z,45.90
2023-05-08T17:59:15.866Z,45.90
2023-05-08T18:09:22.901Z,46.10
2023-05-08T18:19:31.468Z,46.50
2023-05-08T18:29:38.665Z,47.10
2023-05-08T18:39:47.187Z,47.40
2023-05-08T18:49:54.800Z,47.40
2023-05-08T19:00:06.072Z,47.00
2023-05-08T19:10:13.531Z,46.40
2023-05-08T19:20:22.181Z,47.30
2023-05-08T19:30:29.126Z,47.90
2023-05-08T19:40:48.376Z,48.50
2023-05-08T19:51:09.648Z,48.80
2023-05-08T20:01:18.182Z,49.00
2023-05-08T20:11:25.150Z,49.20
2023-05-08T20:21:34.888Z,49.30
2023-05-08T20:31:41.883Z,49.40
2023-05-08T20:41:50.405Z,49.40
2023-05-08T20:51:57.861Z,49.40
2023-05-08T21:02:06.477Z,49.10
2023-05-08T21:12:13.367Z,49.20
2023-05-08T21:22:22.068Z,49.00
2023-05-08T21:32:28.995Z,48.90
2023-05-08T21:42:37.480Z,48.70
2023-05-08T21:52:47.633Z,48.60
2023-05-08T22:02:56.079Z,49.70
2023-05-08T22:13:03.497Z,50.50
2023-05-08T22:23:11.951Z,50.90
2023-05-08T22:33:18.720Z,51.40
2023-05-08T22:43:27.731Z,52.60
2023-05-08T22:53:34.847Z,53.00
2023-05-08T23:03:43.444Z,53.20
2023-05-08T23:13:50.268Z,52.50
2023-05-08T23:23:58.605Z,52.20
2023-05-08T23:34:05.495Z,51.90
2023-05-08T23:44:13.993Z,51.70
2023-05-08T23:54:21.262Z,51.70
